Flight Track Log - Related Links

Times and Time Zones

All times are in EDT time to prevent confusion due to time zone crossing. See the SWA3675 flight status page for this flight to view local times or setup timezone preferences in your user account.

Time Position Orientation Groundspeed Altitude Reporting Facility
EDT Latitude Longitude Course Direction KTS MPH feet Rate Location/Type
Wed 07:47:33 PM 39.0833 -76.5833 142° Southeast 231 266 5,700  Level Potomac TRACON
Wed 07:48:33 PM 39.0167 -76.5333 150° Southeast 275 316 8,700 2,800 Climbing Potomac TRACON
Wed 07:49:33 PM 38.9333 -76.4833 155° Southeast 313 360 11,300 1,590 Climbing Potomac TRACON
Wed 07:51:53 PM 38.7486 -76.6058 207° Southwest 355 409 14,000 822 Climbing Washington Center
Wed 07:52:50 PM 38.6606 -76.6606 206° Southwest 355 409 14,000  Level Washington Center
Wed 07:53:51 PM 38.5725 -76.7175 207° Southwest 355 409 14,000  Level Washington Center
Wed 07:54:51 PM 38.4661 -76.7133 178° South 346 398 14,000  Level Washington Center
Wed 07:55:52 PM 38.3744 -76.7067 177° South 352 405 14,000  Level Washington Center
Wed 07:56:52 PM 38.2703 -76.6867 171° South 352 405 14,000  Level Washington Center
Wed 07:57:50 PM 38.1725 -76.6747 175° South 352 405 14,000  Level Washington Center
Wed 07:58:50 PM 38.0744 -76.6653 176° South 352 405 14,000  Level Washington Center
Wed 07:59:52 PM 37.9786 -76.6692 182° South 346 398 14,000  Level Washington Center
Wed 08:00:50 PM 37.8783 -76.6808 185° South 351 404 14,000  Level Washington Center
Wed 08:01:35 PM 37.8225 -76.6433 152° Southeast 353 406 14,000  Level Washington Center
Wed 08:01:51 PM 37.8017 -76.6167 135° Southeast 330 380 14,000  Level Washington Center
Wed 08:02:48 PM 37.7397 -76.5372 135° Southeast 337 388 14,000 -564 Level Washington Center
Wed 08:03:48 PM 37.6781 -76.4472 131° Southeast 341 392 12,900 -1,461 Descending Washington Center
Wed 08:04:43 PM 37.6094 -76.3967 150° Southeast 327 376 11,200 -1,438 Descending Washington Center
Wed 08:05:49 PM 37.5222 -76.3356 151° Southeast 314 361 10,000 -595 Descending Washington Center
Wed 08:06:44 PM 37.4472 -76.3269 175° South 300 345 10,000  Level Washington Center
Wed 08:07:44 PM 37.3597 -76.3261 180° South 310 357 10,000 -571 Level Washington Center
Wed 08:08:50 PM 37.2700 -76.3253 180° South 304 350 8,800 -1,250 Descending Washington Center
Wed 08:09:44 PM 37.1989 -76.3322 184° South 279 321 7,500 -1,438 Descending Washington Center
Wed 08:10:51 PM 37.1156 -76.3289 178° South 286 329 5,900 -1,594 Descending Washington Center
Wed 08:11:52 PM 37.0342 -76.3333 182° South 275 316 4,100 -1,339 Descending Washington Center
Wed 08:12:52 PM 36.9653 -76.3378 183° South 255 293 3,200 -545 Descending Washington Center
Wed 08:13:53 PM 36.9006 -76.3478 187° South 222 255 3,000 -347 Descending Washington Center
Wed 08:14:53 PM 36.8400 -76.3550 185° South 223 257 2,500 -500 Descending Washington Center

Login

Don't have an account? Register now (free) for customized features, flight alerts, and more!